Time;durP1;ratioP1;P1;durP2;ratioP2;P2;SDS_P1;SDS_P2;PMS_P1;PMS_P2;Temp;Humidity;BMP_temperature;BMP_pressure;BME280_temperature;BME280_humidity;BME280_pressure;Samples;Min_cycle;Max_cycle;Signal;HPM_P1;HPM_P2
2022/05/10 00:00:19;;;;;;;10.10;7.73;;;;;;;15.94;67.31;102045.97;5074707;28;20290;-35
2022/05/10 00:02:53;;;;;;;8.82;7.10;;;;;;;15.96;67.21;102036.50;5075314;28;20626;-35
2022/05/10 00:05:32;;;;;;;8.45;7.35;;;;;;;15.93;66.98;102038.88;5075672;28;20033;-35
2022/05/10 00:07:58;;;;;;;11.18;7.18;;;;;;;15.77;67.22;102034.97;5073573;28;20386;-35
2022/05/10 00:10:24;;;;;;;9.35;6.45;;;;;;;15.86;67.22;102041.72;5074912;28;20031;-35
2022/05/10 00:12:49;;;;;;;;;;;;;;;16.04;64.77;102039.91;5075607;28;20020;-35
2022/05/10 00:15:15;;;;;;;8.35;6.95;;;;;;;15.78;67.90;102027.59;5075402;28;20367;-35
2022/05/10 00:17:41;;;;;;;;;;;;;;;16.02;64.89;102034.72;5075859;28;20036;-35
2022/05/10 00:20:10;;;;;;;10.75;6.82;;;;;;;15.68;67.20;102025.47;5075085;28;20272;-35
2022/05/10 00:22:36;;;;;;;9.23;6.72;;;;;;;15.61;66.81;102024.69;5075215;28;20033;-35
2022/05/10 00:25:02;;;;;;;;;;;;;;;15.81;65.21;102019.78;5075559;28;20020;-35
2022/05/10 00:27:27;;;;;;;12.15;6.85;;;;;;;15.52;69.13;102010.63;5075008;28;20380;-35
2022/05/10 00:29:52;;;;;;;;;;;;;;;15.78;65.69;102019.44;5075908;28;20036;-35
2022/05/10 00:32:18;;;;;;;11.10;6.78;;;;;;;15.50;68.58;102017.34;5074219;28;20047;-35
2022/05/10 00:34:44;;;;;;;;;;;;;;;15.71;66.22;102016.78;5075826;28;20029;-35
2022/05/10 00:37:11;;;;;;;9.82;7.35;;;;;;;15.41;69.34;102023.13;5075188;28;19912;-35
2022/05/10 00:39:37;;;;;;;8.57;7.60;;;;;;;15.34;70.09;102018.88;5074608;28;20032;-35
2022/05/10 00:42:05;;;;;;;;;;;;;;;15.59;66.63;102015.94;5075290;28;20423;-35
2022/05/10 00:44:37;;;;;;;9.70;7.43;;;;;;;15.32;70.10;102010.91;5074294;28;19916;-35
2022/05/10 00:47:23;;;;;;;8.55;7.68;;;;;;;15.22;69.81;101998.94;5074730;28;20028;-35
2022/05/10 00:49:59;;;;;;;8.45;7.55;;;;;;;15.24;70.82;102010.44;5074394;28;20031;-35
2022/05/10 00:52:43;;;;;;;8.88;7.97;;;;;;;15.18;70.63;102002.13;5074911;28;20031;-35
2022/05/10 00:55:15;;;;;;;10.52;7.22;;;;;;;15.10;70.33;101999.75;5074401;28;20449;-35
2022/05/10 00:57:44;;;;;;;9.65;8.23;;;;;;;15.06;70.15;101998.53;5075002;28;20368;-35
2022/05/10 01:00:12;;;;;;;9.32;8.30;;;;;;;15.03;71.10;101995.44;5074969;28;20036;-35
2022/05/10 01:02:47;;;;;;;8.07;7.28;;;;;;;14.95;70.82;101996.63;5074613;28;20021;-35
2022/05/10 01:05:38;;;;;;;9.13;7.30;;;;;;;15.01;71.03;101992.13;5074424;28;20456;-35
2022/05/10 01:08:26;;;;;;;8.73;7.75;;;;;;;14.96;71.94;101990.09;5074754;28;20484;-34
2022/05/10 01:11:15;;;;;;;9.27;7.85;;;;;;;14.99;70.94;101984.22;5073318;28;20024;-35
2022/05/10 01:14:15;;;;;;;11.32;7.78;;;;;;;14.95;72.26;101983.00;5072615;28;20445;-35
2022/05/10 01:16:41;;;;;;;9.15;8.02;;;;;;;14.80;72.49;101974.44;5073837;28;20032;-35
2022/05/10 01:19:06;;;;;;;;;;;;;;;15.12;69.70;101974.97;5073974;28;20031;-35
2022/05/10 01:22:09;;;;;;;10.10;8.77;;;;;;;14.89;71.21;101976.59;5074338;28;19919;-35
2022/05/10 01:25:11;;;;;;;11.07;7.72;;;;;;;14.80;71.80;101958.09;5073608;28;20048;-35
2022/05/10 01:27:58;;;;;;;16.15;8.73;;;;;;;14.69;73.40;101962.44;5073955;28;20029;-35
2022/05/10 01:30:28;;;;;;;9.15;8.10;;;;;;;14.71;73.16;101959.47;5074008;28;20044;-35
2022/05/10 01:35:49;;;;;;;10.00;8.57;;;;;;;14.64;73.85;101965.88;5073805;28;20131;-35
2022/05/10 01:38:27;;;;;;;10.85;8.18;;;;;;;14.68;73.26;101953.41;5073530;28;20066;-35
2022/05/10 01:41:01;;;;;;;9.70;8.70;;;;;;;14.58;74.43;101950.44;5073477;28;20032;-35
2022/05/10 01:44:01;;;;;;;9.60;8.60;;;;;;;14.62;73.53;101953.53;5074159;28;20389;-35
2022/05/10 01:46:30;;;;;;;10.50;9.43;;;;;;;14.55;74.23;101945.47;5074113;28;20029;-35
2022/05/10 01:49:12;;;;;;;10.32;9.32;;;;;;;14.51;73.65;101940.72;5073502;28;20021;-35
2022/05/10 01:52:09;;;;;;;10.65;9.35;;;;;;;14.62;73.48;101937.19;5073388;28;20028;-35
2022/05/10 01:54:34;;;;;;;10.98;9.73;;;;;;;14.49;74.33;101940.09;5072868;28;20075;-35
2022/05/10 01:57:02;;;;;;;12.10;9.07;;;;;;;14.52;74.36;101934.19;5073507;28;20032;-35
2022/05/10 01:59:27;;;;;;;11.68;9.07;;;;;;;14.46;73.79;101935.94;5072989;28;20055;-35
2022/05/10 02:01:53;;;;;;;;;;;;;;;14.65;71.49;101944.91;5074210;28;20033;-34
2022/05/10 02:04:29;;;;;;;11.32;8.93;;;;;;;14.42;74.61;101940.16;5073623;28;19912;-35
2022/05/10 02:06:59;;;;;;;;;;;;;;;14.64;71.51;101935.06;5073805;28;20040;-35
2022/05/10 02:09:48;;;;;;;10.57;9.48;;;;;;;14.49;73.68;101937.38;5073560;28;19979;-35
2022/05/10 02:12:19;;;;;;;10.93;9.77;;;;;;;14.26;74.69;101921.75;5072957;28;20421;-35
2022/05/10 02:14:54;;;;;;;10.57;9.45;;;;;;;14.27;75.54;101932.41;5073245;28;20032;-35
2022/05/10 02:17:29;;;;;;;10.15;8.93;;;;;;;14.26;75.92;101925.31;5073790;28;20469;-35
2022/05/10 02:20:04;;;;;;;13.00;9.63;;;;;;;14.24;75.46;101912.97;5072965;28;20070;-35
2022/05/10 02:22:38;;;;;;;17.15;10.70;;;;;;;14.31;75.25;101914.56;5072493;28;20646;-35
2022/05/10 02:25:28;;;;;;;11.27;9.57;;;;;;;14.39;75.00;101916.94;5073337;28;20055;-35
2022/05/10 02:28:04;;;;;;;11.25;9.07;;;;;;;14.32;75.37;101905.34;5072812;28;20461;-35
2022/05/10 02:30:34;;;;;;;11.00;9.88;;;;;;;14.29;75.74;101907.69;5072317;28;20130;-35
2022/05/10 02:33:06;;;;;;;12.35;10.35;;;;;;;14.26;76.38;101903.53;5073056;28;20078;-35
2022/05/10 02:35:42;;;;;;;13.35;10.45;;;;;;;14.25;76.29;101901.88;5072792;28;20044;-35
2022/05/10 02:38:11;;;;;;;11.25;9.90;;;;;;;14.28;76.23;101895.13;5072934;28;20503;-35
2022/05/10 02:40:41;;;;;;;15.60;10.63;;;;;;;14.29;77.26;101892.19;5073481;28;20082;-35
2022/05/10 02:43:08;;;;;;;11.40;9.63;;;;;;;14.42;76.26;101892.00;5072727;28;20055;-35
2022/05/10 02:45:35;;;;;;;13.32;10.60;;;;;;;14.24;73.11;101892.03;5072674;28;20111;-35
2022/05/10 02:48:02;;;;;;;12.73;11.38;;;;;;;14.29;75.99;101888.63;5072631;28;20060;-35
2022/05/10 02:50:33;;;;;;;13.25;10.50;;;;;;;14.22;76.39;101877.03;5072939;28;20430;-34
2022/05/10 02:53:00;;;;;;;12.57;10.90;;;;;;;14.25;77.11;101884.72;5072981;28;20427;-35
2022/05/10 02:55:40;;;;;;;13.75;10.55;;;;;;;14.39;76.21;101881.56;5072971;28;20107;-35
2022/05/10 02:58:35;;;;;;;12.77;11.05;;;;;;;14.34;75.40;101880.59;5073196;28;20040;-35
2022/05/10 03:01:06;;;;;;;13.73;11.40;;;;;;;14.28;76.56;101878.81;5050307;28;20071;-35
2022/05/10 03:03:33;;;;;;;14.82;11.70;;;;;;;14.32;76.21;101880.84;5050212;28;20397;-35
2022/05/10 03:05:58;;;;;;;15.75;11.63;;;;;;;14.27;76.68;101875.28;5050112;28;20051;-35
2022/05/10 03:08:24;;;;;;;;;;;;;;;14.49;74.23;101875.59;5050520;28;20116;-35
2022/05/10 03:10:49;;;;;;;14.80;12.13;;;;;;;14.30;76.39;101884.84;5050480;28;20020;-35
2022/05/10 03:13:15;;;;;;;18.20;11.77;;;;;;;14.32;76.35;101863.69;5050666;28;20054;-35
2022/05/10 03:15:41;;;;;;;15.02;12.20;;;;;;;14.30;76.62;101871.25;5050269;28;20120;-34
2022/05/10 03:18:06;;;;;;;14.35;11.43;;;;;;;14.31;76.84;101873.75;5049935;28;20044;-34
2022/05/10 03:20:31;;;;;;;18.03;13.00;;;;;;;14.32;76.93;101864.53;5050010;28;20028;-35
2022/05/10 03:22:58;;;;;;;;;;;;;;;14.48;74.62;101862.25;5050533;28;20029;-35
2022/05/10 03:25:24;;;;;;;11.93;10.70;;;;;;;14.31;76.04;101865.59;5050469;28;19912;-35
2022/05/10 03:27:50;;;;;;;12.90;11.60;;;;;;;14.38;76.51;101860.03;5049724;28;20032;-35
2022/05/10 03:30:15;;;;;;;;;;;;;;;14.51;74.29;101862.63;5050750;28;20200;-35
2022/05/10 03:32:41;;;;;;;14.85;11.43;;;;;;;14.41;76.73;101856.88;5050136;28;19924;-35
2022/05/10 03:35:06;;;;;;;13.68;12.27;;;;;;;14.34;76.59;101851.50;5053013;28;20090;-35
2022/05/10 03:37:32;;;;;;;15.13;11.43;;;;;;;14.45;76.84;101846.34;5061625;28;20033;-34
2022/05/10 03:39:59;;;;;;;14.85;11.73;;;;;;;14.35;77.08;101852.38;5075774;28;20024;-35
2022/05/10 03:42:25;;;;;;;14.90;11.40;;;;;;;14.31;77.31;101845.72;5075635;28;20032;-35
2022/05/10 03:44:52;;;;;;;;;;;;;;;14.50;74.74;101850.06;5076803;28;20119;-35
2022/05/10 03:47:18;;;;;;;;;;;;;;;14.54;74.29;101850.41;5076158;28;19931;-34
2022/05/10 03:49:45;;;;;;;13.27;10.38;;;;;;;14.31;76.99;101843.00;5075605;28;19912;-35
2022/05/10 03:52:11;;;;;;;13.38;11.13;;;;;;;14.36;76.78;101835.78;5075867;28;20044;-35
2022/05/10 03:54:36;;;;;;;;;;;;;;;14.48;74.58;101845.91;5076100;28;20024;-35
2022/05/10 03:57:01;;;;;;;15.57;11.73;;;;;;;14.27;77.17;101844.53;5075261;28;19956;-35
2022/05/10 03:59:27;;;;;;;;;;;;;;;14.46;74.47;101842.56;5075684;28;20060;-35
2022/05/10 04:01:52;;;;;;;15.17;10.80;;;;;;;14.26;77.75;101832.81;5075659;28;20272;-35
2022/05/10 04:04:17;;;;;;;14.90;11.52;;;;;;;14.29;77.50;101837.78;5074015;28;20705;-35
2022/05/10 04:06:43;;;;;;;17.08;12.90;;;;;;;14.24;77.69;101831.38;5075652;28;20050;-35
2022/05/10 04:09:08;;;;;;;14.17;10.97;;;;;;;14.20;78.29;101838.31;5075208;28;20020;-35
2022/05/10 04:11:35;;;;;;;14.70;12.23;;;;;;;14.18;77.45;101831.22;5075823;28;20291;-35
2022/05/10 04:14:00;;;;;;;15.70;12.23;;;;;;;14.15;78.03;101837.16;5075082;28;20275;-35
2022/05/10 04:16:26;;;;;;;;;;;;;;;14.33;75.88;101832.69;5075545;28;20032;-35
2022/05/10 04:18:51;;;;;;;17.88;13.00;;;;;;;14.21;77.86;101818.25;5074728;28;19947;-35
2022/05/10 04:21:17;;;;;;;16.50;11.55;;;;;;;14.26;77.85;101831.97;5075047;28;20056;-35
2022/05/10 04:23:42;;;;;;;15.15;12.50;;;;;;;14.20;77.31;101814.69;5075413;28;20139;-35
2022/05/10 04:26:11;;;;;;;14.27;12.57;;;;;;;14.26;78.28;101826.53;5075218;28;20103;-35
2022/05/10 04:28:37;;;;;;;14.55;12.25;;;;;;;14.26;78.14;101826.53;5074884;28;20029;-35
2022/05/10 04:31:03;;;;;;;;;;;;;;;14.50;75.92;101832.91;5075100;28;20489;-35
2022/05/10 04:33:29;;;;;;;14.57;11.02;;;;;;;14.37;78.11;101823.84;5074754;28;20005;-35
2022/05/10 04:35:54;;;;;;;12.75;11.48;;;;;;;14.39;78.71;101821.72;5074109;28;20040;-35
2022/05/10 04:38:19;;;;;;;16.08;12.20;;;;;;;14.47;78.06;101820.56;5074650;28;20059;-35
2022/05/10 04:43:30;;;;;;;16.17;11.05;;;;;;;14.41;78.18;101818.78;5075095;28;19939;-35
2022/05/10 04:45:55;;;;;;;;;;;;;;;14.58;76.12;101819.78;5075254;28;20454;-35
2022/05/10 04:48:21;;;;;;;14.00;10.30;;;;;;;14.50;77.32;101819.31;5074604;28;19912;-36
2022/05/10 04:50:47;;;;;;;13.63;10.30;;;;;;;14.49;77.81;101806.75;5074641;28;20024;-35
2022/05/10 04:53:13;;;;;;;12.88;11.40;;;;;;;14.57;77.18;101812.69;5074785;28;20032;-35
2022/05/10 04:55:38;;;;;;;;;;;;;;;14.66;75.84;101813.16;5075365;28;20085;-35
2022/05/10 04:58:03;;;;;;;12.40;10.70;;;;;;;14.58;77.45;101818.94;5074362;28;19912;-35
2022/05/10 05:00:30;;;;;;;12.55;11.25;;;;;;;14.59;76.96;101802.41;5074937;28;20266;-35
2022/05/10 05:02:56;;;;;;;11.88;10.15;;;;;;;14.62;76.46;101807.34;5074152;28;20060;-35
2022/05/10 05:05:21;;;;;;;;;;;;;;;14.82;75.40;101815.19;5074284;28;20070;-35
2022/05/10 05:07:47;;;;;;;14.68;10.02;;;;;;;14.75;76.57;101813.66;5074469;28;19913;-35
2022/05/10 05:10:12;;;;;;;;;;;;;;;14.87;75.44;101822.66;5074307;28;20044;-35
2022/05/10 05:12:37;;;;;;;17.90;11.27;;;;;;;14.75;75.51;101805.50;5074036;28;19927;-35
2022/05/10 05:15:06;;;;;;;16.67;10.68;;;;;;;14.87;75.55;101818.03;5074231;28;20407;-33
2022/05/10 05:17:32;;;;;;;12.95;9.88;;;;;;;14.96;75.82;101814.97;5073821;28;20029;-35
2022/05/10 05:19:57;;;;;;;;;;;;;;;15.08;74.90;101818.50;5074448;28;20119;-35
2022/05/10 05:22:22;;;;;;;20.77;11.57;;;;;;;15.04;75.02;101817.34;5074613;28;19959;-35
2022/05/10 05:24:47;;;;;;;;;;;;;;;15.17;74.14;101825.25;5072917;28;20450;-35
2022/05/10 05:27:13;;;;;;;17.57;11.53;;;;;;;15.08;75.10;101813.91;5073506;28;20473;-35
2022/05/10 05:29:38;;;;;;;19.33;10.80;;;;;;;15.06;74.94;101816.03;5073744;28;20762;-35
2022/05/10 05:32:06;;;;;;;;;;;;;;;15.28;73.86;101820.91;5074288;28;20119;-35
2022/05/10 05:34:31;;;;;;;16.15;10.55;;;;;;;15.23;75.23;101812.59;5074146;28;19978;-35
2022/05/10 05:39:40;;;;;;;18.45;11.00;;;;;;;15.25;74.97;101811.28;5074086;28;19970;-35
2022/05/10 05:42:05;;;;;;;;;;;;;;;15.44;74.08;101817.44;5074184;28;20032;-35
2022/05/10 05:44:31;;;;;;;18.13;11.13;;;;;;;15.43;74.91;101813.06;5073309;28;19912;-35
2022/05/10 05:46:57;;;;;;;18.13;10.83;;;;;;;15.51;74.10;101817.28;5072275;28;20119;-35
2022/05/10 05:49:25;;;;;;;17.70;10.63;;;;;;;15.52;73.55;101808.88;5073557;28;20615;-35
2022/05/10 05:51:55;;;;;;;14.43;11.10;;;;;;;15.59;74.47;101806.00;5073048;28;20469;-35
2022/05/10 05:54:20;;;;;;;16.27;10.88;;;;;;;15.52;73.67;101791.69;5073216;28;20142;-35
2022/05/10 05:56:45;;;;;;;;;;;;;;;15.76;73.29;101804.19;5073140;28;20111;-35
2022/05/10 05:59:11;;;;;;;10.97;9.30;;;;;;;15.83;73.10;101796.72;5073239;28;20046;-35
2022/05/10 06:01:36;;;;;;;;;;;;;;;15.95;72.95;101797.50;5073822;28;20108;-35
2022/05/10 06:04:01;;;;;;;13.43;9.33;;;;;;;16.03;72.94;101790.00;5073107;28;20245;-35
2022/05/10 06:06:28;;;;;;;14.30;9.60;;;;;;;16.11;71.86;101789.63;5073582;28;20358;-35
2022/05/10 06:08:53;;;;;;;12.45;8.80;;;;;;;16.14;72.15;101784.47;5072999;28;20021;-35
2022/05/10 06:11:18;;;;;;;;;;;;;;;16.27;71.52;101794.28;5073524;28;20028;-35
2022/05/10 06:13:44;;;;;;;9.57;7.97;;;;;;;16.32;71.54;101796.25;5073219;28;20272;-35
2022/05/10 06:16:09;;;;;;;;;;;;;;;16.45;71.20;101804.16;5072117;28;20389;-35
2022/05/10 06:18:35;;;;;;;9.25;7.70;;;;;;;16.54;70.54;101799.91;5072718;28;19931;-35
2022/05/10 06:21:00;;;;;;;;;;;;;;;16.63;71.01;101792.97;5074115;28;20076;-35
2022/05/10 06:23:26;;;;;;;11.57;7.20;;;;;;;16.75;70.20;101792.91;5071361;28;19908;-35
2022/05/10 06:25:51;;;;;;;;;;;;;;;16.84;70.11;101798.81;5073545;28;20028;-35
2022/05/10 06:28:16;;;;;;;9.82;7.55;;;;;;;16.91;69.75;101794.81;5072515;28;19912;-35
2022/05/10 06:30:42;;;;;;;;;;;;;;;16.98;69.63;101794.63;5073326;28;20032;-35
2022/05/10 06:33:08;;;;;;;11.45;6.38;;;;;;;17.02;69.39;101790.31;5073026;28;19963;-35
2022/05/10 06:35:33;;;;;;;;;;;;;;;17.14;69.78;101777.38;5074094;28;20056;-35
2022/05/10 06:38:16;;;;;;;9.75;6.40;;;;;;;17.20;69.15;101776.38;5072828;28;19912;-35
2022/05/10 06:40:43;;;;;;;7.63;6.75;;;;;;;17.30;68.56;101783.06;5071788;28;20029;-35
2022/05/10 06:43:09;;;;;;;9.85;6.65;;;;;;;17.38;68.66;101782.63;5072678;28;20029;-36
2022/05/10 06:45:34;;;;;;;;;;;;;;;17.47;68.26;101784.66;5073050;28;20028;-35
2022/05/10 06:48:00;;;;;;;9.43;5.95;;;;;;;17.59;68.02;101773.59;5072537;28;19916;-35
2022/05/10 06:50:26;;;;;;;;;;;;;;;17.71;67.21;101781.63;5073480;28;20039;-35
2022/05/10 06:52:57;;;;;;;8.07;5.78;;;;;;;17.77;67.14;101760.69;5072768;28;19966;-35
2022/05/10 06:55:23;;;;;;;7.03;5.90;;;;;;;17.94;66.57;101770.44;5072383;28;20029;-35
2022/05/10 06:57:49;;;;;;;8.23;5.75;;;;;;;18.07;66.35;101763.75;5072645;28;20029;-35
2022/05/10 07:00:16;;;;;;;;;;;;;;;18.18;66.64;101770.13;5073048;28;20123;-35
2022/05/10 07:02:42;;;;;;;10.77;5.30;;;;;;;18.31;65.67;101766.97;5073406;28;19942;-35
2022/05/10 07:05:08;;;;;;;;;;;;;;;18.39;66.49;101760.19;5073161;28;20032;-35
2022/05/10 07:07:34;;;;;;;11.00;5.43;;;;;;;18.43;65.28;101764.88;5072276;28;19923;-36
2022/05/10 07:10:00;;;;;;;9.60;5.85;;;;;;;18.54;64.78;101757.56;5075466;28;20028;-35
2022/05/10 07:12:25;;;;;;;9.18;5.50;;;;;;;18.64;64.65;101752.19;5076638;28;20158;-35
2022/05/10 07:14:50;;;;;;;;;;;;;;;18.80;64.81;101753.16;5076366;28;20044;-35
2022/05/10 07:17:15;;;;;;;6.73;4.93;;;;;;;18.99;64.08;101748.06;5076610;28;19919;-36
2022/05/10 07:19:41;;;;;;;;;;;;;;;19.11;63.77;101750.56;5076954;28;20278;-35
2022/05/10 07:22:07;;;;;;;10.55;5.13;;;;;;;19.21;63.39;101745.13;5076197;28;19988;-36
2022/05/10 07:24:32;;;;;;;9.73;5.25;;;;;;;19.36;61.84;101733.41;5075782;28;20028;-35
2022/05/10 07:26:57;;;;;;;6.68;4.75;;;;;;;19.47;61.16;101738.69;5075879;28;20396;-35
2022/05/10 07:29:23;;;;;;;;;;;;;;;19.62;62.74;101735.19;5077217;28;20441;-36
2022/05/10 07:31:49;;;;;;;6.80;4.77;;;;;;;19.74;61.21;101746.75;5076037;28;19977;-36
2022/05/10 07:34:15;;;;;;;8.63;4.18;;;;;;;19.86;59.92;101742.91;5075942;28;20282;-36
2022/05/10 07:36:40;;;;;;;;;;;;;;;19.95;60.17;101739.38;5076847;28;20043;-36
2022/05/10 07:39:09;;;;;;;5.28;3.90;;;;;;;19.98;59.46;101732.53;5075610;28;20375;-35
2022/05/10 07:41:35;;;;;;;11.07;4.63;;;;;;;19.96;59.99;101727.31;5075601;28;20025;-36
2022/05/10 07:44:01;;;;;;;5.80;4.22;;;;;;;20.04;60.53;101737.72;5076710;28;20050;-35
2022/05/10 07:46:27;;;;;;;9.50;4.22;;;;;;;20.03;60.01;101738.00;5075762;28;20111;-36
2022/05/10 07:48:52;;;;;;;8.85;3.90;;;;;;;20.09;59.47;101734.16;5075280;28;20432;-35
2022/05/10 07:51:18;;;;;;;6.07;4.03;;;;;;;20.10;59.62;101733.06;5076440;28;20021;-35
2022/05/10 07:53:44;;;;;;;7.05;4.00;;;;;;;20.12;60.10;101722.66;5075557;28;20055;-36
2022/05/10 07:56:10;;;;;;;6.43;4.07;;;;;;;20.19;59.67;101734.19;5075870;28;20036;-35
2022/05/10 07:58:35;;;;;;;;;;;;;;;20.28;58.87;101728.97;5076182;28;20055;-36
2022/05/10 08:01:02;;;;;;;5.53;3.85;;;;;;;20.26;58.97;101722.94;5076241;28;19908;-35
2022/05/10 08:03:28;;;;;;;10.10;3.83;;;;;;;20.32;58.59;101727.31;5075350;28;20032;-36
2022/05/10 08:05:55;;;;;;;6.68;3.70;;;;;;;20.28;58.92;101716.06;5075608;28;20032;-36
2022/05/10 08:08:21;;;;;;;6.63;4.18;;;;;;;20.31;58.57;101729.25;5075262;28;20044;-36
2022/05/10 08:10:48;;;;;;;7.78;4.47;;;;;;;20.29;58.18;101723.19;5075003;28;20048;-35
2022/05/10 08:13:20;;;;;;;5.25;3.88;;;;;;;20.33;58.14;101729.78;5074957;28;20418;-36
2022/05/10 08:15:46;;;;;;;8.45;3.92;;;;;;;20.37;58.77;101723.75;5074909;28;20032;-35
2022/05/10 08:18:12;;;;;;;7.60;3.78;;;;;;;20.40;58.40;101725.94;5075088;28;20033;-36
2022/05/10 08:20:38;;;;;;;6.20;3.30;;;;;;;20.36;58.15;101727.59;5074683;28;20511;-35
2022/05/10 08:23:06;;;;;;;6.35;3.72;;;;;;;20.28;57.84;101707.00;5075068;28;20060;-36
2022/05/10 08:25:32;;;;;;;6.25;3.53;;;;;;;20.38;58.23;101730.88;5074844;28;20049;-35
2022/05/10 08:27:58;;;;;;;6.32;3.30;;;;;;;20.38;58.56;101719.91;5074885;28;20123;-35
2022/05/10 08:30:23;;;;;;;6.22;3.50;;;;;;;20.38;58.59;101717.16;5073356;28;20040;-35
2022/05/10 08:32:48;;;;;;;8.38;3.25;;;;;;;20.41;58.59;101719.34;5075273;28;20053;-35
2022/05/10 08:35:14;;;;;;;6.47;3.20;;;;;;;20.40;58.46;101717.69;5074478;28;20039;-35
2022/05/10 08:37:39;;;;;;;6.45;3.13;;;;;;;20.36;57.00;101713.88;5074350;28;20569;-35
2022/05/10 08:40:07;;;;;;;4.68;3.08;;;;;;;20.40;57.26;101714.94;5074610;28;20043;-35
2022/05/10 08:42:37;;;;;;;6.57;3.00;;;;;;;20.44;57.16;101714.13;5073287;28;20033;-35
2022/05/10 08:45:07;;;;;;;10.63;3.67;;;;;;;20.47;57.12;101705.38;5075322;28;20031;-35
2022/05/10 08:47:35;;;;;;;9.02;3.53;;;;;;;20.49;57.41;101703.16;5074271;28;20056;-35
2022/05/10 08:50:06;;;;;;;4.93;3.20;;;;;;;20.61;56.64;101702.06;5074501;28;20074;-35
2022/05/10 08:52:39;;;;;;;8.15;3.40;;;;;;;20.71;56.70;101697.34;5074768;28;20067;-35
2022/05/10 08:55:06;;;;;;;5.53;3.25;;;;;;;20.77;55.60;101693.50;5075196;28;20112;-35
2022/05/10 08:57:43;;;;;;;4.82;2.78;;;;;;;20.86;54.74;101695.69;5074275;28;20095;-36
2022/05/10 09:00:13;;;;;;;5.35;2.58;;;;;;;20.94;55.24;101684.94;5074417;28;20036;-36
2022/05/10 09:02:45;;;;;;;5.50;3.00;;;;;;;21.10;53.10;101699.44;5074062;28;20028;-36
2022/05/10 09:05:26;;;;;;;5.82;2.75;;;;;;;21.19;53.89;101691.44;5074140;28;20086;-36
2022/05/10 09:08:28;;;;;;;5.00;2.92;;;;;;;21.32;53.48;101688.09;5073872;28;20388;-36
2022/05/10 09:11:03;;;;;;;5.63;2.85;;;;;;;21.28;52.61;101679.56;5051717;28;20556;-36
2022/05/10 09:13:29;;;;;;;6.18;2.92;;;;;;;21.32;52.75;101671.56;5051801;28;20033;-36
2022/05/10 09:15:58;;;;;;;5.03;2.72;;;;;;;21.42;52.23;101670.69;5035278;28;20041;-36
2022/05/10 09:18:30;;;;;;;5.75;3.00;;;;;;;21.56;52.45;101679.97;5051528;28;20209;-35
2022/05/10 09:21:16;;;;;;;5.88;3.30;;;;;;;21.74;51.72;101675.75;5051834;28;20045;-36
2022/05/10 09:24:11;;;;;;;6.13;2.78;;;;;;;21.83;51.23;101671.28;5051441;28;20037;-36
2022/05/10 09:26:42;;;;;;;3.77;2.57;;;;;;;21.96;51.43;101670.63;5051983;28;20072;-36
2022/05/10 09:29:18;;;;;;;2.97;2.58;;;;;;;22.08;51.82;101670.25;5051525;28;20037;-36
2022/05/10 09:34:46;;;;;;;6.30;2.78;;;;;;;22.13;50.61;101669.41;5051964;28;20508;-36
2022/05/10 09:37:58;;;;;;;5.35;3.17;;;;;;;22.19;50.99;101674.59;5051544;28;20457;-35
2022/05/10 09:40:40;;;;;;;4.65;2.90;;;;;;;22.16;50.88;101666.91;4972614;28;20050;-35
2022/05/10 09:43:17;;;;;;;4.13;3.13;;;;;;;22.20;50.85;101673.47;4972540;28;20495;-36
2022/05/10 09:45:44;;;;;;;5.50;3.00;;;;;;;22.24;51.06;101665.44;4972576;28;20039;-36
2022/05/10 09:48:12;;;;;;;4.85;3.50;;;;;;;22.23;50.99;101656.38;5002496;28;20114;-36
2022/05/10 09:50:41;;;;;;;3.90;2.90;;;;;;;22.27;50.97;101664.88;5011590;28;20092;-36
2022/05/10 09:53:12;;;;;;;6.13;3.13;;;;;;;22.23;50.83;101655.56;5011403;28;20026;-36
2022/05/10 09:55:39;;;;;;;7.18;3.20;;;;;;;22.26;51.78;101632.94;5012047;28;20427;-36
2022/05/10 09:58:14;;;;;;;4.85;3.30;;;;;;;22.48;50.98;101646.19;5011359;28;20465;-36
2022/05/10 10:00:42;;;;;;;8.02;3.85;;;;;;;22.55;50.14;101652.22;5011794;28;20076;-36
2022/05/10 10:03:08;;;;;;;3.72;2.50;;;;;;;22.76;51.05;101653.63;5011152;28;20030;-36
2022/05/10 10:05:35;;;;;;;5.85;3.22;;;;;;;22.88;49.12;101637.50;5011302;28;20088;-36
2022/05/10 10:08:01;;;;;;;8.00;3.35;;;;;;;23.15;49.94;101635.25;5011131;28;20029;-36
2022/05/10 10:10:37;;;;;;;7.53;2.90;;;;;;;23.36;48.43;101626.38;5028471;28;20128;-36
2022/05/10 10:13:28;;;;;;;7.10;3.00;;;;;;;23.67;47.70;101634.25;5073164;28;20385;-36
2022/05/10 10:15:54;;;;;;;5.35;3.13;;;;;;;23.72;47.20;101631.41;5073009;28;20481;-36
2022/05/10 10:18:47;;;;;;;9.30;2.85;;;;;;;24.00;47.61;101637.00;5073023;28;20384;-36
2022/05/10 10:21:20;;;;;;;5.05;3.00;;;;;;;24.06;45.84;101633.03;5073455;28;20525;-36
2022/05/10 10:23:54;;;;;;;5.38;2.95;;;;;;;24.06;45.57;101616.44;5071953;28;20031;-36
2022/05/10 10:26:23;;;;;;;8.00;3.00;;;;;;;24.16;45.30;101621.81;5072795;28;20021;-36
2022/05/10 10:29:10;;;;;;;7.10;2.90;;;;;;;24.30;46.04;101616.28;5072833;28;20036;-36
2022/05/10 10:32:00;;;;;;;5.35;2.50;;;;;;;24.47;44.95;101611.03;5073176;28;20056;-36
2022/05/10 10:34:33;;;;;;;7.15;2.28;;;;;;;24.47;44.12;101601.91;5072866;28;20032;-36
2022/05/10 10:37:05;;;;;;;6.03;2.53;;;;;;;24.54;43.52;101614.19;5073153;28;20538;-36
2022/05/10 10:39:37;;;;;;;7.20;2.30;;;;;;;24.64;43.22;101614.00;5072787;28;20035;-36
2022/05/10 10:42:12;;;;;;;4.25;2.00;;;;;;;24.83;42.83;101593.69;5073285;28;20036;-36
2022/05/10 10:44:45;;;;;;;10.05;2.60;;;;;;;24.99;43.51;101597.78;5076577;28;20032;-36
2022/05/10 10:47:19;;;;;;;9.55;2.47;;;;;;;24.99;42.28;101608.06;5077260;28;20418;-36
2022/05/10 10:49:52;;;;;;;14.13;2.55;;;;;;;24.68;42.22;101605.91;5077188;28;20078;-36
2022/05/10 10:52:18;;;;;;;8.88;2.42;;;;;;;24.60;41.78;101603.88;5076815;28;20035;-36
2022/05/10 10:54:44;;;;;;;10.38;2.58;;;;;;;24.57;42.74;101596.19;5076364;28;20427;-36
2022/05/10 10:57:16;;;;;;;6.95;2.33;;;;;;;24.77;42.43;101589.41;5076841;28;20145;-36
2022/05/10 10:59:48;;;;;;;7.50;2.67;;;;;;;24.77;42.14;101603.25;5076842;28;20031;-36
2022/05/10 11:02:16;;;;;;;8.23;2.80;;;;;;;24.65;42.19;101601.81;5076395;28;20419;-36
2022/05/10 11:05:00;;;;;;;11.45;2.60;;;;;;;24.65;42.52;101606.53;5076742;28;20031;-36
2022/05/10 11:08:13;;;;;;;7.65;2.42;;;;;;;24.59;43.60;101589.22;5076501;28;20044;-36
2022/05/10 11:10:44;;;;;;;5.85;2.40;;;;;;;24.47;43.33;101591.69;5054182;28;20120;-36
2022/05/10 11:13:28;;;;;;;6.30;2.38;;;;;;;24.46;43.35;101592.81;5053864;28;20544;-36
2022/05/10 11:16:12;;;;;;;6.15;2.65;;;;;;;24.52;43.24;101588.00;5054326;28;20090;-36
2022/05/10 11:18:56;;;;;;;6.32;2.40;;;;;;;24.77;42.69;101581.94;5054332;28;20120;-36
2022/05/10 11:21:51;;;;;;;5.22;2.47;;;;;;;25.19;43.47;101568.88;5054505;28;20037;-36
2022/05/10 11:24:30;;;;;;;4.35;2.53;;;;;;;25.11;42.44;101555.78;5053701;28;20114;-36
2022/05/10 11:27:24;;;;;;;5.13;2.60;;;;;;;25.07;42.11;101574.94;5054201;28;20047;-36
2022/05/10 11:30:14;;;;;;;3.38;2.40;;;;;;;24.95;42.43;101563.56;4975237;28;20058;-36
2022/05/10 11:32:57;;;;;;;7.40;2.85;;;;;;;24.74;44.10;101554.88;4975014;28;20531;-36
2022/05/10 11:36:01;;;;;;;5.65;2.58;;;;;;;24.82;43.16;101565.22;4975036;28;20042;-36
2022/05/10 11:38:26;;;;;;;6.47;2.90;;;;;;;24.86;43.45;101559.91;4899071;29;20411;-36
2022/05/10 11:40:51;;;;;;;3.30;2.37;;;;;;;25.04;43.48;101555.38;4898789;29;20037;-36
2022/05/10 11:43:55;;;;;;;9.20;2.78;;;;;;;25.09;42.01;101552.50;4898452;29;20670;-36
2022/05/10 11:46:40;;;;;;;7.93;2.53;;;;;;;25.02;41.10;101536.28;4910861;29;20043;-36
2022/05/10 11:49:20;;;;;;;4.88;2.25;;;;;;;25.04;41.59;101544.28;4936598;29;20086;-36
2022/05/10 11:52:00;;;;;;;5.25;2.75;;;;;;;25.05;41.84;101549.50;4936475;29;20031;-36
2022/05/10 11:54:53;;;;;;;6.40;2.40;;;;;;;25.00;41.84;101543.28;4935228;29;20099;-36
2022/05/10 11:57:21;;;;;;;6.50;2.70;;;;;;;24.95;40.86;101541.44;4936525;29;20111;-36